createdAt,value
2022-09-17T00:01:14.921Z,1.37
2022-09-17T00:21:20.773Z,1.66
2022-09-17T00:41:26.594Z,1.46
2022-09-17T01:01:32.348Z,1.73
2022-09-17T01:21:38.120Z,1.61
2022-09-17T01:41:43.885Z,1.45
2022-09-17T02:01:49.661Z,1.29
2022-09-17T02:21:55.494Z,1.34
2022-09-17T02:42:01.333Z,1.47
2022-09-17T03:02:07.389Z,1.63
2022-09-17T03:22:13.258Z,2.07
2022-09-17T04:02:28.770Z,2.52
2022-09-17T04:22:34.397Z,2.69
2022-09-17T04:42:40.157Z,2.76
2022-09-17T05:02:46.152Z,2.19
2022-09-17T05:22:56.963Z,2.15
2022-09-17T05:42:52.875Z,1.49
2022-09-17T06:02:58.651Z,1.49
2022-09-17T06:23:04.481Z,1.32
2022-09-17T06:43:10.292Z,1.40
2022-09-17T07:03:19.994Z,1.57
2022-09-17T07:23:21.364Z,1.55
2022-09-17T07:43:27.103Z,1.24
2022-09-17T08:03:32.972Z,1.03
2022-09-17T08:23:38.681Z,1.07
2022-09-17T08:43:44.435Z,1.16
2022-09-17T09:03:50.181Z,0.65
2022-09-17T09:23:55.951Z,1.08
2022-09-17T09:44:04.397Z,1.72
2022-09-17T10:04:07.023Z,1.35
2022-09-17T10:24:12.792Z,1.50
2022-09-17T10:44:18.506Z,1.86
2022-09-17T11:04:24.333Z,1.86
2022-09-17T11:24:30.038Z,1.69
2022-09-17T11:44:35.778Z,1.87
2022-09-17T12:04:41.525Z,1.70
2022-09-17T12:24:47.738Z,1.40
2022-09-17T12:44:54.056Z,1.57
2022-09-17T13:05:02.028Z,1.32
2022-09-17T13:25:05.578Z,0.95
2022-09-17T13:45:14.568Z,1.37
2022-09-17T14:05:20.805Z,0.78
2022-09-17T14:25:26.998Z,0.96
2022-09-17T14:45:33.231Z,0.97
2022-09-17T15:05:39.500Z,1.14
2022-09-17T15:25:45.779Z,1.04
2022-09-17T15:45:52.001Z,1.01
2022-09-17T16:06:00.431Z,2.19
2022-09-17T16:26:03.106Z,1.00
2022-09-17T16:46:08.955Z,1.30
2022-09-17T17:06:14.688Z,1.46
2022-09-17T17:26:20.381Z,1.12
2022-09-17T17:46:26.220Z,1.40
2022-09-17T18:06:31.969Z,1.27
2022-09-17T18:26:37.680Z,1.31
2022-09-17T18:46:43.515Z,2.18
2022-09-17T19:06:49.208Z,1.29
2022-09-17T19:26:54.957Z,1.29
2022-09-17T19:47:00.738Z,1.03
2022-09-17T20:07:06.594Z,1.01
2022-09-17T20:27:12.328Z,0.92
2022-09-17T20:47:18.158Z,1.14
2022-09-17T21:07:24.020Z,1.00
2022-09-17T21:27:29.743Z,1.17
2022-09-17T21:47:35.531Z,1.70
2022-09-17T22:07:42.240Z,1.28
2022-09-17T22:28:10.073Z,1.12
2022-09-17T22:47:53.322Z,1.00
2022-09-17T23:07:59.127Z,0.74
2022-09-17T23:28:05.014Z,0.99
2022-09-17T23:48:10.812Z,0.98
